createdAt,value
2022-09-03T00:00:05.778Z,16.30
2022-09-03T00:02:40.097Z,16.30
2022-09-03T00:05:16.267Z,16.27
2022-09-03T00:07:50.362Z,16.27
2022-09-03T00:10:23.721Z,16.30
2022-09-03T00:12:54.487Z,16.29
2022-09-03T00:15:24.975Z,16.27
2022-09-03T00:17:56.794Z,16.27
2022-09-03T00:20:33.020Z,16.23
2022-09-03T00:23:05.043Z,16.19
2022-09-03T00:25:39.578Z,16.17
2022-09-03T00:28:14.089Z,16.15
2022-09-03T00:30:44.194Z,16.16
2022-09-03T00:33:19.100Z,16.16
2022-09-03T00:35:53.813Z,16.13
2022-09-03T00:38:22.272Z,16.10
2022-09-03T00:41:06.436Z,16.09
2022-09-03T00:43:48.934Z,16.08
2022-09-03T00:46:24.553Z,16.06
2022-09-03T00:49:11.074Z,16.02
2022-09-03T00:51:51.006Z,15.97
2022-09-03T00:54:25.476Z,15.94
2022-09-03T00:57:05.980Z,15.88
2022-09-03T00:59:42.345Z,15.84
2022-09-03T01:02:21.125Z,15.78
2022-09-03T01:04:58.842Z,15.70
2022-09-03T01:07:37.608Z,15.62
2022-09-03T01:10:17.275Z,15.59
2022-09-03T01:12:54.312Z,15.50
2022-09-03T01:15:27.750Z,15.49
2022-09-03T01:18:05.770Z,15.48
2022-09-03T01:20:42.503Z,15.39
2022-09-03T01:23:46.528Z,15.32
2022-09-03T01:26:31.759Z,15.34
2022-09-03T01:29:11.875Z,15.31
2022-09-03T01:31:47.150Z,15.30
2022-09-03T01:34:25.449Z,15.30
2022-09-03T01:37:06.649Z,15.27
2022-09-03T01:39:47.022Z,15.23
2022-09-03T01:42:24.372Z,15.16
2022-09-03T01:45:22.395Z,15.17
2022-09-03T01:48:06.064Z,15.15
2022-09-03T01:50:43.819Z,15.13
2022-09-03T01:53:20.222Z,15.08
2022-09-03T01:56:06.038Z,15.00
2022-09-03T01:58:39.085Z,14.99
2022-09-03T02:01:15.130Z,14.90
2022-09-03T02:03:48.134Z,14.80
2022-09-03T02:06:16.671Z,14.66
2022-09-03T02:08:44.739Z,14.60
2022-09-03T02:11:12.537Z,14.56
2022-09-03T02:13:44.484Z,14.50
2022-09-03T02:16:16.880Z,14.41
2022-09-03T02:18:50.613Z,14.42
2022-09-03T02:21:21.099Z,14.43
2022-09-03T02:23:49.769Z,14.39
2022-09-03T02:26:22.274Z,14.33
2022-09-03T02:28:51.535Z,14.36
2022-09-03T02:31:20.859Z,14.37
2022-09-03T02:33:50.089Z,14.40
2022-09-03T02:36:27.599Z,14.39
2022-09-03T02:38:55.782Z,14.42
2022-09-03T02:41:26.409Z,14.43
2022-09-03T02:44:00.325Z,14.30
2022-09-03T02:46:35.856Z,14.20
2022-09-03T02:49:03.779Z,14.21
2022-09-03T02:51:35.275Z,14.24
2022-09-03T02:54:03.668Z,14.12
2022-09-03T02:56:31.623Z,14.11
2022-09-03T02:59:00.219Z,14.11
2022-09-03T03:01:28.242Z,13.99
2022-09-03T03:03:57.407Z,13.95
2022-09-03T03:06:25.214Z,13.97
2022-09-03T03:08:57.150Z,13.88
2022-09-03T03:11:26.288Z,13.91
2022-09-03T03:13:54.304Z,13.90
2022-09-03T03:16:22.119Z,13.84
2022-09-03T03:18:50.771Z,13.74
2022-09-03T03:21:20.492Z,13.76
2022-09-03T03:23:48.233Z,13.71
2022-09-03T03:26:19.023Z,13.74
2022-09-03T03:28:48.467Z,13.81
2022-09-03T03:31:18.175Z,13.78
2022-09-03T03:33:51.282Z,13.79
2022-09-03T03:36:21.275Z,13.90
2022-09-03T03:38:49.056Z,13.82
2022-09-03T03:41:19.046Z,13.74
2022-09-03T03:43:46.876Z,13.78
2022-09-03T03:46:15.803Z,13.76
2022-09-03T03:48:43.582Z,13.76
2022-09-03T03:51:11.717Z,13.82
2022-09-03T03:53:41.077Z,13.91
2022-09-03T03:56:11.243Z,13.90
2022-09-03T03:58:43.905Z,13.91
2022-09-03T04:01:14.191Z,13.88
2022-09-03T04:03:45.263Z,13.90
2022-09-03T04:06:15.570Z,13.91
2022-09-03T04:08:46.742Z,13.92
2022-09-03T04:11:19.068Z,13.91
2022-09-03T04:13:47.885Z,13.94
2022-09-03T04:16:18.739Z,14.00
2022-09-03T04:18:48.930Z,13.98
2022-09-03T04:21:19.407Z,14.00
2022-09-03T04:23:50.487Z,14.07
2022-09-03T04:26:20.556Z,14.06
2022-09-03T04:28:48.459Z,14.08
2022-09-03T04:31:19.930Z,14.12
2022-09-03T04:33:48.039Z,14.16
2022-09-03T04:36:17.419Z,14.12
2022-09-03T04:38:47.603Z,14.16
2022-09-03T04:41:18.358Z,14.15
2022-09-03T04:43:46.167Z,14.20
2022-09-03T04:46:20.212Z,14.14
2022-09-03T04:48:51.173Z,14.17
2022-09-03T04:51:21.324Z,14.18
2022-09-03T04:53:54.000Z,14.19
2022-09-03T04:56:24.822Z,14.22
2022-09-03T04:58:56.667Z,14.23
2022-09-03T05:01:26.272Z,14.26
2022-09-03T05:03:55.003Z,14.28
2022-09-03T05:06:22.804Z,14.30
2022-09-03T05:08:51.849Z,14.33
2022-09-03T05:11:20.088Z,14.36
2022-09-03T05:13:50.750Z,14.36
2022-09-03T05:16:20.249Z,14.38
2022-09-03T05:18:48.883Z,14.41
2022-09-03T05:21:18.858Z,14.46
2022-09-03T05:23:48.834Z,14.49
2022-09-03T05:26:18.187Z,14.50
2022-09-03T05:28:46.876Z,14.54
2022-09-03T05:31:18.784Z,14.60
2022-09-03T05:33:48.347Z,14.59
2022-09-03T05:36:18.199Z,14.53
2022-09-03T05:38:47.468Z,14.43
2022-09-03T05:41:16.831Z,14.27
2022-09-03T05:43:52.350Z,14.20
2022-09-03T05:46:22.080Z,14.01
2022-09-03T05:48:49.903Z,13.97
2022-09-03T05:51:21.161Z,13.98
2022-09-03T05:53:50.403Z,13.98
2022-09-03T05:56:19.841Z,13.90
2022-09-03T05:58:49.803Z,13.90
2022-09-03T06:01:19.224Z,13.86
2022-09-03T06:03:54.076Z,13.89
2022-09-03T06:06:25.494Z,13.84
2022-09-03T06:08:53.570Z,13.81
2022-09-03T06:11:21.586Z,13.88
2022-09-03T06:13:49.435Z,13.93
2022-09-03T06:16:17.234Z,13.98
2022-09-03T06:18:45.076Z,14.02
2022-09-03T06:21:14.940Z,14.03
2022-09-03T06:23:46.547Z,14.05
2022-09-03T06:26:15.512Z,14.17
2022-09-03T06:28:44.391Z,14.17
2022-09-03T06:31:14.519Z,14.16
2022-09-03T06:33:42.824Z,14.20
2022-09-03T06:36:13.344Z,14.20
2022-09-03T06:38:43.700Z,14.27
2022-09-03T06:41:13.480Z,14.24
2022-09-03T06:43:43.000Z,14.26
2022-09-03T06:46:12.829Z,14.30
2022-09-03T06:48:41.752Z,14.38
2022-09-03T06:51:15.406Z,14.41
2022-09-03T06:53:46.479Z,14.48
2022-09-03T06:56:16.943Z,14.49
2022-09-03T06:58:46.405Z,14.52
2022-09-03T07:01:17.564Z,14.64
2022-09-03T07:03:47.004Z,14.74
2022-09-03T07:06:17.086Z,14.93
2022-09-03T07:08:46.865Z,15.01
2022-09-03T07:11:16.384Z,15.12
2022-09-03T07:13:45.844Z,15.15
2022-09-03T07:16:16.380Z,15.24
2022-09-03T07:18:44.732Z,15.27
2022-09-03T07:21:15.234Z,15.32
2022-09-03T07:23:43.699Z,15.34
2022-09-03T07:26:16.126Z,15.38
2022-09-03T07:28:45.932Z,15.47
2022-09-03T07:31:15.993Z,15.57
2022-09-03T07:33:44.034Z,15.63
2022-09-03T07:36:14.290Z,15.70
2022-09-03T07:38:44.447Z,15.77
2022-09-03T07:41:17.605Z,15.84
2022-09-03T07:43:57.069Z,15.97
2022-09-03T07:46:27.313Z,16.12
2022-09-03T07:48:56.777Z,16.21
2022-09-03T07:51:27.789Z,16.28
2022-09-03T07:53:57.626Z,16.39
2022-09-03T07:56:28.232Z,16.53
2022-09-03T07:58:56.379Z,16.65
2022-09-03T08:01:27.292Z,16.78
2022-09-03T08:03:56.522Z,16.97
2022-09-03T08:06:26.189Z,17.17
2022-09-03T08:09:03.700Z,17.31
2022-09-03T08:11:35.006Z,17.51
2022-09-03T08:14:06.196Z,17.65
2022-09-03T08:16:36.586Z,17.84
2022-09-03T08:19:04.976Z,17.93
2022-09-03T08:21:33.077Z,18.03
2022-09-03T08:24:02.777Z,18.05
2022-09-03T08:26:32.179Z,18.09
2022-09-03T08:29:01.947Z,18.15
2022-09-03T08:31:30.933Z,18.22
2022-09-03T08:34:06.631Z,18.29
2022-09-03T08:36:36.915Z,18.35
2022-09-03T08:39:09.777Z,18.49
2022-09-03T08:42:01.791Z,18.57
2022-09-03T08:44:37.494Z,18.71
2022-09-03T08:47:12.499Z,18.81
2022-09-03T08:49:46.356Z,18.93
2022-09-03T08:52:25.448Z,19.04
2022-09-03T08:54:56.827Z,19.10
2022-09-03T08:57:26.525Z,19.18
2022-09-03T08:59:57.136Z,19.29
2022-09-03T09:02:35.451Z,19.50
2022-09-03T09:05:14.392Z,19.61
2022-09-03T09:07:53.234Z,19.77
2022-09-03T09:10:27.025Z,20.00
2022-09-03T09:13:17.288Z,20.47
2022-09-03T09:15:53.483Z,20.85
2022-09-03T09:18:29.563Z,21.09
2022-09-03T09:21:06.672Z,21.21
2022-09-03T09:23:39.228Z,21.14
2022-09-03T09:26:11.491Z,20.93
2022-09-03T09:28:40.627Z,20.84
2022-09-03T09:31:16.944Z,20.85
2022-09-03T09:33:44.803Z,20.65
2022-09-03T09:36:16.900Z,20.53
2022-09-03T09:38:45.441Z,20.41
2022-09-03T09:41:16.399Z,20.34
2022-09-03T09:43:45.407Z,20.24
2022-09-03T09:46:16.018Z,20.31
2022-09-03T09:48:51.691Z,20.39
2022-09-03T09:51:22.445Z,20.37
2022-09-03T09:54:01.235Z,20.49
2022-09-03T09:56:29.172Z,20.43
2022-09-03T09:59:04.173Z,20.31
2022-09-03T10:01:33.857Z,20.32
2022-09-03T10:04:10.694Z,20.33
2022-09-03T10:06:57.944Z,20.28
2022-09-03T10:09:31.347Z,20.12
2022-09-03T10:12:14.509Z,20.03
2022-09-03T10:14:47.628Z,20.00
2022-09-03T10:17:24.947Z,19.91
2022-09-03T10:20:28.147Z,19.82
2022-09-03T10:22:57.747Z,19.84
2022-09-03T10:25:30.676Z,19.87
2022-09-03T10:28:00.961Z,19.93
2022-09-03T10:30:30.933Z,20.08
2022-09-03T10:33:12.746Z,20.42
2022-09-03T10:35:47.213Z,20.64
2022-09-03T10:38:22.908Z,21.13
2022-09-03T10:40:59.013Z,21.37
2022-09-03T10:43:48.298Z,21.69
2022-09-03T10:46:23.416Z,21.70
2022-09-03T10:49:14.794Z,21.71
2022-09-03T10:51:49.376Z,21.58
2022-09-03T10:54:38.374Z,21.79
2022-09-03T10:57:16.532Z,22.09
2022-09-03T11:00:06.214Z,22.17
2022-09-03T11:03:07.354Z,22.06
2022-09-03T11:05:40.634Z,22.21
2022-09-03T11:08:13.355Z,22.21
2022-09-03T11:10:45.951Z,22.18
2022-09-03T11:13:20.067Z,22.40
2022-09-03T11:15:53.132Z,22.94
2022-09-03T11:18:26.699Z,23.68
2022-09-03T11:21:07.672Z,24.47
2022-09-03T11:23:42.332Z,24.86
2022-09-03T11:26:13.392Z,24.90
2022-09-03T11:28:49.003Z,24.76
2022-09-03T11:31:27.803Z,24.92
2022-09-03T11:33:59.591Z,24.92
2022-09-03T11:36:34.293Z,25.18
2022-09-03T11:39:02.652Z,25.68
2022-09-03T11:41:35.941Z,26.02
2022-09-03T11:44:18.815Z,26.32
2022-09-03T11:46:56.027Z,26.19
2022-09-03T11:49:31.068Z,26.08
2022-09-03T11:52:09.981Z,25.65
2022-09-03T11:54:45.468Z,26.23
2022-09-03T11:57:15.807Z,26.85
2022-09-03T11:59:45.276Z,26.81
2022-09-03T12:02:28.222Z,26.88
2022-09-03T12:05:16.005Z,27.29
2022-09-03T12:08:11.760Z,27.77
2022-09-03T12:10:47.553Z,27.85
2022-09-03T12:13:27.059Z,28.32
2022-09-03T12:16:36.284Z,28.38
2022-09-03T12:19:12.827Z,28.31
2022-09-03T12:21:41.492Z,28.47
2022-09-03T12:24:14.428Z,28.60
2022-09-03T12:26:44.106Z,28.31
2022-09-03T12:29:26.649Z,27.93
2022-09-03T12:31:57.329Z,27.39
2022-09-03T12:34:25.715Z,26.51
2022-09-03T12:36:55.705Z,25.98
2022-09-03T12:42:21.716Z,25.60
2022-09-03T12:44:49.795Z,25.22
2022-09-03T12:50:09.508Z,24.57
2022-09-03T12:52:41.115Z,24.22
2022-09-03T12:55:20.998Z,23.91
2022-09-03T12:57:57.739Z,23.69
2022-09-03T13:00:33.376Z,23.45
2022-09-03T13:03:05.531Z,23.16
2022-09-03T13:05:36.387Z,22.99
2022-09-03T13:08:09.031Z,22.66
2022-09-03T13:10:41.898Z,22.37
2022-09-03T13:13:23.430Z,21.75
2022-09-03T13:16:25.083Z,20.98
2022-09-03T13:19:02.380Z,19.98
2022-09-03T13:21:38.448Z,19.48
2022-09-03T13:24:19.835Z,19.27
2022-09-03T13:26:57.832Z,19.19
2022-09-03T13:29:52.563Z,19.38
2022-09-03T13:32:31.945Z,19.67
2022-09-03T13:35:09.076Z,19.91
2022-09-03T13:37:41.478Z,19.85
2022-09-03T13:40:22.426Z,19.88
2022-09-03T13:42:56.144Z,19.68
2022-09-03T13:45:36.923Z,19.49
2022-09-03T13:48:28.980Z,19.60
2022-09-03T13:51:04.550Z,19.49
2022-09-03T13:53:51.506Z,19.58
2022-09-03T13:56:36.097Z,19.53
2022-09-03T13:59:13.390Z,19.52
2022-09-03T14:01:59.372Z,19.53
2022-09-03T14:04:39.603Z,19.64
2022-09-03T14:07:13.055Z,19.79
2022-09-03T14:09:49.279Z,19.84
2022-09-03T14:12:23.831Z,19.92
2022-09-03T14:15:00.005Z,19.80
2022-09-03T14:17:38.019Z,19.81
2022-09-03T14:20:09.751Z,19.72
2022-09-03T14:22:52.130Z,19.77
2022-09-03T14:25:21.882Z,19.78
2022-09-03T14:27:49.817Z,19.71
2022-09-03T14:30:39.439Z,19.77
2022-09-03T14:33:15.407Z,19.94
2022-09-03T14:36:00.092Z,20.14
2022-09-03T14:38:56.418Z,20.48
2022-09-03T14:41:43.498Z,20.79
2022-09-03T14:44:35.994Z,21.04
2022-09-03T14:47:15.688Z,21.26
2022-09-03T14:50:09.162Z,21.32
2022-09-03T14:53:00.918Z,21.37
2022-09-03T14:55:50.020Z,21.19
2022-09-03T14:58:32.116Z,21.16
2022-09-03T15:01:04.994Z,20.83
2022-09-03T15:04:04.431Z,20.47
2022-09-03T15:06:52.604Z,20.25
2022-09-03T15:09:29.419Z,20.05
2022-09-03T15:12:01.302Z,19.90
2022-09-03T15:14:37.120Z,19.75
2022-09-03T15:17:29.204Z,19.50
2022-09-03T15:20:17.941Z,19.35
2022-09-03T15:23:05.544Z,19.31
2022-09-03T15:25:49.376Z,19.28
2022-09-03T15:28:23.781Z,19.27
2022-09-03T15:31:01.572Z,19.51
2022-09-03T15:33:36.140Z,19.58
2022-09-03T15:36:24.604Z,19.81
2022-09-03T15:38:59.719Z,19.96
2022-09-03T15:41:39.734Z,20.09
2022-09-03T15:44:16.969Z,20.27
2022-09-03T15:46:53.695Z,20.21
2022-09-03T15:49:30.637Z,20.33
2022-09-03T15:52:12.175Z,20.50
2022-09-03T15:54:47.819Z,20.51
2022-09-03T15:57:21.419Z,20.59
2022-09-03T15:59:56.472Z,20.55
2022-09-03T16:02:33.544Z,20.57
2022-09-03T16:05:09.967Z,20.50
2022-09-03T16:07:55.370Z,20.32
2022-09-03T16:10:33.599Z,20.25
2022-09-03T16:13:06.887Z,20.21
2022-09-03T16:15:39.786Z,20.04
2022-09-03T16:18:16.852Z,19.99
2022-09-03T16:20:49.261Z,19.96
2022-09-03T16:23:25.434Z,19.90
2022-09-03T16:25:59.178Z,19.81
2022-09-03T16:28:31.876Z,19.79
2022-09-03T16:31:12.987Z,19.75
2022-09-03T16:33:53.165Z,19.71
2022-09-03T16:36:33.498Z,19.67
2022-09-03T16:39:09.453Z,19.65
2022-09-03T16:41:45.667Z,19.60
2022-09-03T16:44:25.108Z,19.55
2022-09-03T16:47:00.771Z,19.52
2022-09-03T16:49:47.870Z,19.52
2022-09-03T16:52:37.882Z,19.35
2022-09-03T16:55:21.376Z,19.26
2022-09-03T16:58:08.171Z,19.21
2022-09-03T17:00:48.420Z,19.19
2022-09-03T17:03:33.708Z,19.17
2022-09-03T17:06:17.892Z,19.14
2022-09-03T17:08:58.360Z,19.08
2022-09-03T17:11:42.877Z,19.02
2022-09-03T17:14:25.246Z,18.96
2022-09-03T17:17:06.256Z,18.93
2022-09-03T17:19:40.744Z,18.79
2022-09-03T17:22:18.384Z,18.71
2022-09-03T17:25:04.059Z,18.59
2022-09-03T17:28:04.568Z,18.48
2022-09-03T17:30:42.907Z,18.42
2022-09-03T17:33:35.389Z,18.34
2022-09-03T17:36:13.148Z,18.25
2022-09-03T17:39:09.701Z,18.10
2022-09-03T17:41:46.518Z,18.04
2022-09-03T17:44:28.121Z,17.97
2022-09-03T17:47:08.645Z,17.89
2022-09-03T17:49:47.912Z,17.82
2022-09-03T17:52:27.270Z,17.73
2022-09-03T17:54:59.174Z,17.67
2022-09-03T17:57:31.875Z,17.58
2022-09-03T18:00:06.183Z,17.53
2022-09-03T18:02:41.525Z,17.49
2022-09-03T18:05:19.173Z,17.39
2022-09-03T18:07:53.296Z,17.33
2022-09-03T18:10:29.276Z,17.30
2022-09-03T18:13:08.433Z,17.27
2022-09-03T18:15:49.340Z,17.32
2022-09-03T18:18:25.752Z,17.25
2022-09-03T18:21:24.361Z,17.13
2022-09-03T18:24:19.628Z,17.08
2022-09-03T18:27:11.376Z,16.99
2022-09-03T18:30:05.499Z,16.90
2022-09-03T18:32:52.486Z,16.96
2022-09-03T18:35:37.679Z,16.86
2022-09-03T18:38:24.233Z,16.78
2022-09-03T18:41:17.576Z,16.72
2022-09-03T18:44:13.752Z,16.75
2022-09-03T18:50:29.266Z,16.67
2022-09-03T18:53:17.059Z,16.59
2022-09-03T18:56:15.867Z,16.58
2022-09-03T18:59:15.474Z,16.40
2022-09-03T19:02:02.082Z,16.36
2022-09-03T19:05:01.463Z,16.29
2022-09-03T19:08:00.174Z,16.29
2022-09-03T19:10:52.511Z,16.19
2022-09-03T19:13:49.872Z,16.17
2022-09-03T19:16:44.219Z,16.16
2022-09-03T19:20:13.547Z,16.18
2022-09-03T19:23:01.266Z,16.15
2022-09-03T19:25:48.989Z,16.14
2022-09-03T19:28:36.804Z,16.09
2022-09-03T19:31:39.911Z,16.06
2022-09-03T19:34:42.707Z,16.02
2022-09-03T19:37:35.418Z,15.98
2022-09-03T19:40:42.287Z,15.91
2022-09-03T19:43:38.178Z,15.91
2022-09-03T19:46:31.067Z,15.89
2022-09-03T19:49:26.376Z,15.81
2022-09-03T19:52:21.679Z,15.71
2022-09-03T19:55:12.035Z,15.70
2022-09-03T19:58:00.636Z,15.66
2022-09-03T20:00:47.692Z,15.63
2022-09-03T20:03:33.525Z,15.61
2022-09-03T20:06:22.215Z,15.57
2022-09-03T20:09:08.803Z,15.55
2022-09-03T20:11:39.656Z,15.57
2022-09-03T20:14:14.318Z,15.56
2022-09-03T20:16:52.981Z,15.56
2022-09-03T20:19:30.574Z,15.57
2022-09-03T20:22:03.844Z,15.59
2022-09-03T20:24:44.019Z,15.63
2022-09-03T20:27:22.540Z,15.62
2022-09-03T20:30:02.712Z,15.59
2022-09-03T20:32:57.587Z,15.57
2022-09-03T20:35:37.233Z,15.57
2022-09-03T20:38:22.501Z,15.61
2022-09-03T20:41:03.055Z,15.59
2022-09-03T20:43:49.914Z,15.55
2022-09-03T20:46:34.315Z,15.45
2022-09-03T20:49:12.925Z,15.40
2022-09-03T20:51:46.077Z,15.39
2022-09-03T20:54:16.980Z,15.32
2022-09-03T20:57:16.730Z,15.31
2022-09-03T21:00:12.647Z,15.27
2022-09-03T21:03:07.556Z,15.20
2022-09-03T21:05:41.898Z,15.16
2022-09-03T21:08:22.052Z,15.20
2022-09-03T21:10:55.828Z,15.13
2022-09-03T21:13:38.565Z,15.09
2022-09-03T21:16:20.123Z,15.09
2022-09-03T21:19:00.035Z,15.06
2022-09-03T21:21:40.363Z,15.05
2022-09-03T21:24:13.375Z,14.99
2022-09-03T21:26:46.147Z,14.96
2022-09-03T21:29:22.590Z,14.89
2022-09-03T21:31:56.700Z,14.83
2022-09-03T21:34:31.629Z,14.85
2022-09-03T21:37:05.002Z,14.83
2022-09-03T21:39:38.007Z,14.75
2022-09-03T21:42:10.852Z,14.72
2022-09-03T21:44:47.827Z,14.70
2022-09-03T21:47:18.543Z,14.73
2022-09-03T21:49:57.797Z,14.71
2022-09-03T21:52:34.732Z,14.70
2022-09-03T21:55:20.939Z,14.68
2022-09-03T21:58:02.127Z,14.69
2022-09-03T22:00:32.647Z,14.63
2022-09-03T22:03:01.230Z,14.59
2022-09-03T22:05:38.055Z,14.51
2022-09-03T22:08:17.281Z,14.47
2022-09-03T22:10:56.911Z,14.49
2022-09-03T22:13:30.953Z,14.48
2022-09-03T22:16:07.124Z,14.43
2022-09-03T22:18:37.915Z,14.36
2022-09-03T22:21:13.932Z,14.37
2022-09-03T22:23:55.544Z,14.35
2022-09-03T22:26:42.815Z,14.33
2022-09-03T22:29:20.502Z,14.30
2022-09-03T22:31:58.199Z,14.32
2022-09-03T22:34:45.687Z,14.32
2022-09-03T22:37:25.594Z,14.38
2022-09-03T22:40:01.411Z,14.41
2022-09-03T22:42:57.451Z,14.36
2022-09-03T22:45:38.196Z,14.26
2022-09-03T22:48:22.875Z,14.29
2022-09-03T22:50:57.624Z,14.24
2022-09-03T22:53:41.409Z,14.21
2022-09-03T22:56:12.185Z,14.21
2022-09-03T22:58:46.318Z,14.19
2022-09-03T23:01:18.958Z,14.18
2022-09-03T23:03:54.405Z,14.17
2022-09-03T23:06:27.014Z,14.09
2022-09-03T23:09:01.306Z,14.04
2022-09-03T23:11:35.022Z,14.02
2022-09-03T23:14:06.098Z,13.97
2022-09-03T23:16:40.418Z,13.97
2022-09-03T23:21:51.701Z,13.98
2022-09-03T23:24:28.744Z,14.01
2022-09-03T23:26:56.838Z,14.02
2022-09-03T23:29:29.040Z,14.00
2022-09-03T23:31:58.036Z,14.05
2022-09-03T23:34:26.210Z,14.02
2022-09-03T23:37:32.597Z,14.05
2022-09-03T23:40:18.152Z,14.02
2022-09-03T23:42:57.213Z,14.02
2022-09-03T23:45:35.974Z,13.97
2022-09-03T23:48:15.607Z,13.96
2022-09-03T23:50:49.521Z,13.97
2022-09-03T23:53:37.216Z,13.96
2022-09-03T23:56:29.403Z,13.92
2022-09-03T23:59:09.706Z,13.94
